• Join FlightAware (Why Join?)
  • Login
  • US Flag 
06:01AM EDT


 

Airport Tracker/Info


-or-


 

Live Flight TrackerFlight Track Log ✈ AWI3725 ✈ 03-May-2014 ✈ KCLT - KCMH

Flight Track Log - Related Links

Times and Time Zones

All times are in EDT time to prevent confusion due to time zone crossing. See the AWI3725 flight status page for this flight to view local times or setup timezone preferences in your user account.

Time Position Orientation Groundspeed Altitude Reporting Facility
EDT Latitude Longitude Course Direction KTS MPH feet Rate Location/Type
12:23PM 35.2372 -80.9569 North 162 186 1,700  Level Atlanta Center
12:24PM 35.2542 -80.9664 336° Northwest 170 196 2,400 1,740 Climbing Atlanta Center
12:25PM 35.2969 -81.0106 320° Northwest 246 283 4,000 1,920 Climbing Atlanta Center
12:25PM 35.3136 -81.0100 North 262 302 4,600 2,940 Climbing Atlanta Center
12:26PM 35.4789 -81.0502 343° North  Level Estimated
12:26PM 35.3675 -80.9928 15° North 290 334 6,900  Level Atlanta Center
12:27PM 35.5578 -80.9908 31° Northeast  Level FlightAware Approximate
12:27PM 35.4400 -80.9722 13° North 285 328 9,800  Level Atlanta Center
12:28PM 35.6367 -80.9312 32° Northeast  Level FlightAware Approximate
12:28PM 35.5228 -80.9486 13° North 280 322 11,200  Level Atlanta Center
12:29PM 35.7243 -80.9683 North  Level Estimated
12:29PM 35.6139 -80.9172 16° North 307 353 13,200  Level Atlanta Center
12:30PM 35.7094 -80.9033 North 328 377 14,500 1,500 Climbing Atlanta Center
12:31PM 35.8042 -80.9381 343° North 338 389 16,200 1,560 Climbing Atlanta Center
12:32PM 35.8947 -80.9706 344° North 353 406 17,700 900 Climbing Atlanta Center
12:33PM 35.9894 -81.0053 343° North 364 419 18,000 900 Climbing Atlanta Center
12:34PM 36.0883 -81.0375 345° North 364 419 19,600 1,440 Climbing Atlanta Center
12:35PM 36.1850 -81.0725 344° North 364 419 21,000 1,320 Climbing Atlanta Center
12:36PM 36.2819 -81.1078 344° North 364 419 22,300 1,320 Climbing Atlanta Center
12:37PM 36.3786 -81.1456 343° North 369 425 23,700 1,260 Climbing Atlanta Center
12:38PM 36.4797 -81.1781 346° North 364 419 24,900 720 Climbing Atlanta Center
12:40PM 36.6792 -81.2517 344° North 364 419 26,000 300 Climbing Indianapolis Center
12:41PM 36.7739 -81.2864 344° North 364 419 26,000  Level Indianapolis Center
12:42PM 36.8703 -81.3208 344° North 364 419 26,000  Level Indianapolis Center
12:43PM 36.9839 -81.3622 344° North 364 419 26,000  Level Indianapolis Center
12:44PM 37.0697 -81.3933 344° North 364 419 26,000  Level Indianapolis Center
12:45PM 37.1839 -81.4358 343° North 365 420 26,000  Level Indianapolis Center
12:46PM 37.2825 -81.4719 344° North 365 420 26,000  Level Indianapolis Center
12:47PM 37.3800 -81.5078 344° North 365 420 26,000  Level Indianapolis Center
12:48PM 37.4797 -81.5447 344° North 366 421 26,000  Level Indianapolis Center
12:49PM 37.5778 -81.5814 343° North 367 422 26,000  Level Indianapolis Center
12:50PM 37.6769 -81.6181 344° North 367 422 26,000  Level Indianapolis Center
12:51PM 37.7756 -81.6553 343° North 367 422 26,000  Level Indianapolis Center
12:52PM 37.8792 -81.6939 344° North 367 422 26,000  Level Indianapolis Center
12:53PM 37.9769 -81.7292 344° North 366 421 26,000  Level Indianapolis Center
12:54PM 38.0747 -81.7667 343° North 366 421 26,000 -600 Level Indianapolis Center
12:55PM 38.1750 -81.8042 344° North 368 423 24,800 -1,020 Descending Indianapolis Center
12:56PM 38.2958 -81.8508 343° North 374 430 24,000 -420 Descending Indianapolis Center
12:57PM 38.3933 -81.8881 343° North 369 425 24,000  Level Indianapolis Center
12:58PM 38.4894 -81.9250 343° North 361 415 24,000  Level Indianapolis Center
12:59PM 38.5869 -81.9603 344° North 361 415 24,000 -240 Level Indianapolis Center
01:00PM 38.6842 -81.9992 343° North 361 415 23,600 -840 Descending Indianapolis Center
01:01PM 38.7853 -82.0378 343° North 370 426 22,300 -1,380 Descending Indianapolis Center
01:02PM 38.8836 -82.0753 343° North 370 426 20,900 -1,440 Descending Indianapolis Center
01:03PM 38.9806 -82.1142 343° North 366 421 19,400 -1,500 Descending Indianapolis Center
01:04PM 39.0781 -82.1528 343° North 366 421 17,900 -1,440 Descending Indianapolis Center
01:05PM 39.1731 -82.1897 343° North 362 417 16,500 -1,500 Descending Indianapolis Center
01:07PM 39.2844 -82.2342 343° North 353 406 14,900 -1,380 Descending Indianapolis Center
01:08PM 39.3758 -82.2717 342° North 348 400 13,700 -1,200 Descending Indianapolis Center
01:08PM 39.4308 -82.2967 341° North 349 402 13,000 -1,320 Descending Indianapolis Center
01:08PM 39.4594 -82.3064 345° North 350 403 12,600 -1,200 Descending Indianapolis Center
01:09PM 39.5464 -82.3411 343° North 328 377 11,400 -1,320 Descending Indianapolis Center
01:10PM 39.6169 -82.3736 340° North 262 302 10,000 -1,260 Descending Indianapolis Center
01:11PM 39.6242 -82.3742 357° North 282 325 9,900 -1,620 Descending Indianapolis Center
01:11PM 39.6900 -82.4036 341° North 269 310 8,400 -1,620 Descending Indianapolis Center
01:12PM 39.6975 -82.4031 North 277 319 8,300 -1,800 Descending Indianapolis Center
01:12PM 39.7625 -82.4364 338° Northwest 273 314 6,600 -1,920 Descending Indianapolis Center
01:13PM 39.7683 -82.4367 358° North 276 318 6,400 -1,980 Descending Indianapolis Center
01:14PM 39.8219 -82.4972 319° Northwest 253 291 4,600 -2,040 Descending Indianapolis Center
01:14PM 39.8339 -82.5078 326° Northwest 261 300 4,300 -600 Descending Indianapolis Center
01:15PM 39.8731 -82.5594 315° West 252 290 4,000 -300 Descending Indianapolis Center
01:15PM 39.8831 -82.5711 318° Northwest 253 291 4,000 -840 Level Indianapolis Center
01:16PM 39.9219 -82.6217 315° West 239 275 3,200 -1,020 Descending Indianapolis Center
01:16PM 39.9311 -82.6300 325° Northwest 249 287 3,000 -540 Descending Indianapolis Center
01:17PM 39.9567 -82.6761 306° West 191 220 2,700 -300 Descending Indianapolis Center
01:17PM 39.9664 -82.6844 327° Northwest 224 258 2,700  Level Indianapolis Center
01:18PM 39.9878 -82.7275 303° West 181 208 2,700 -120 Level Indianapolis Center
01:18PM 39.9939 -82.7381 307° West 199 229 2,600 -420 Descending Indianapolis Center
01:19PM 39.9950 -82.7858 272° West 143 165 2,300 -420 Descending Indianapolis Center
01:19PM 39.9967 -82.7914 291° West 165 190 2,200 -840 Descending Indianapolis Center
01:20PM 39.9986 -82.8356 273° West 131 151 1,500 -720 Descending Indianapolis Center
01:20PM 39.9997 -82.8403 287° West 146 168 1,500 -240 Level Indianapolis Center
01:21PM 40.0036 -82.9000 275° West 143 165 1,200 -300 Descending Indianapolis Center